Time;durP1;ratioP1;P1;durP2;ratioP2;P2;SDS_P1;SDS_P2;PMS_P1;PMS_P2;Temp;Humidity;BMP_temperature;BMP_pressure;BME280_temperature;BME280_humidity;BME280_pressure;Samples;Min_cycle;Max_cycle;Signal;HPM_P1;HPM_P2
2021/04/27 00:00:00;;;;;;;3.85;1.10;;;18.10;49.60;;;;;;6244861;23;20000;-76
2021/04/27 00:02:26;;;;;;;3.65;1.63;;;18.10;49.10;;;;;;6244522;23;20015;-77
2021/04/27 00:04:52;;;;;;;3.28;1.50;;;18.10;49.10;;;;;;6244777;23;20012;-77
2021/04/27 00:07:17;;;;;;;3.13;1.42;;;18.10;49.10;;;;;;6244693;23;20000;-77
2021/04/27 00:09:43;;;;;;;4.47;1.50;;;18.00;49.00;;;;;;6245037;23;20079;-77
2021/04/27 00:12:10;;;;;;;3.83;1.23;;;18.10;49.00;;;;;;6244963;23;20063;-77
2021/04/27 00:14:37;;;;;;;3.88;1.65;;;18.00;48.90;;;;;;6243339;23;20023;-77
2021/04/27 00:17:04;;;;;;;3.45;1.35;;;18.10;49.00;;;;;;6244833;23;20050;-77
2021/04/27 00:19:30;;;;;;;3.33;1.20;;;18.00;48.90;;;;;;6244557;23;20000;-77
2021/04/27 00:21:56;;;;;;;3.80;1.33;;;18.00;48.90;;;;;;6244659;23;20162;-78
2021/04/27 00:24:21;;;;;;;3.38;1.13;;;18.00;48.80;;;;;;6242795;23;20016;-77
2021/04/27 00:26:47;;;;;;;3.53;1.50;;;18.00;48.80;;;;;;6244665;23;20080;-78
2021/04/27 00:29:13;;;;;;;3.05;1.30;;;18.00;48.80;;;;;;6244405;23;20031;-78
2021/04/27 00:31:38;;;;;;;2.58;1.10;;;17.90;48.80;;;;;;6244229;23;20007;-77
2021/04/27 00:34:04;;;;;;;2.80;1.13;;;17.90;48.70;;;;;;6244335;23;20015;-77
2021/04/27 00:36:30;;;;;;;5.03;1.60;;;17.90;48.70;;;;;;6244284;23;20000;-77
2021/04/27 00:38:57;;;;;;;3.92;1.25;;;17.90;48.60;;;;;;6244444;23;20035;-77
2021/04/27 00:41:23;;;;;;;3.42;1.65;;;17.80;48.60;;;;;;6244417;23;20004;-75
2021/04/27 00:43:48;;;;;;;2.28;1.20;;;17.90;48.60;;;;;;6244499;23;20047;-77
2021/04/27 00:46:14;;;;;;;3.17;1.27;;;17.90;48.60;;;;;;6244657;23;20000;-77
2021/04/27 00:48:40;;;;;;;3.95;1.27;;;17.80;48.50;;;;;;6244423;23;20000;-76
2021/04/27 00:51:05;;;;;;;2.72;1.30;;;17.80;48.50;;;;;;6244018;23;20077;-77
2021/04/27 00:53:31;;;;;;;4.82;1.45;;;17.80;48.60;;;;;;6244276;23;20008;-75
2021/04/27 00:55:57;;;;;;;2.88;1.52;;;17.80;48.50;;;;;;6242886;23;20023;-77
2021/04/27 00:58:26;;;;;;;2.95;1.38;;;17.80;48.50;;;;;;6242340;23;20437;-77
2021/04/27 01:00:52;;;;;;;3.88;1.30;;;17.80;48.60;;;;;;6243825;23;20336;-77
2021/04/27 01:03:18;;;;;;;3.03;1.40;;;17.80;48.50;;;;;;6244033;23;20008;-76
2021/04/27 01:05:44;;;;;;;3.63;1.55;;;17.80;48.50;;;;;;6244164;23;20007;-77
2021/04/27 01:08:19;;;;;;;1.92;1.10;;;17.70;48.50;;;;;;6244056;23;20011;-77
2021/04/27 01:11:04;;;;;;;3.93;1.37;;;17.80;48.50;;;;;;6244724;23;19996;-76
2021/04/27 01:13:51;;;;;;;3.03;1.30;;;17.70;48.30;;;;;;6212497;23;20000;-77
2021/04/27 01:16:18;;;;;;;3.38;1.60;;;17.70;48.30;;;;;;6244319;23;20310;-77
2021/04/27 01:18:49;;;;;;;2.95;1.45;;;17.70;48.30;;;;;;6242654;23;20023;-77
2021/04/27 01:21:16;;;;;;;2.55;1.25;;;17.70;48.30;;;;;;6244683;23;20054;-76
2021/04/27 01:24:01;;;;;;;5.05;1.40;;;17.70;48.20;;;;;;6244006;23;20008;-77
2021/04/27 01:26:36;;;;;;;2.92;1.52;;;17.70;48.30;;;;;;6242744;23;20008;-76
2021/04/27 01:29:07;;;;;;;3.80;1.35;;;17.70;48.40;;;;;;6242140;23;20008;-77
2021/04/27 01:31:35;;;;;;;2.00;1.20;;;17.70;48.30;;;;;;6243923;23;20008;-77
2021/04/27 01:34:03;;;;;;;1.85;1.20;;;17.70;48.20;;;;;;6244124;23;20000;-76
2021/04/27 01:36:30;;;;;;;2.40;1.13;;;17.60;48.20;;;;;;6242431;23;20054;-76
2021/04/27 01:38:55;;;;;;;7.07;2.03;;;17.60;48.20;;;;;;6242082;23;20348;-77
2021/04/27 01:41:21;;;;;;;3.42;1.50;;;17.60;48.30;;;;;;6243810;23;20000;-77
2021/04/27 01:43:48;;;;;;;4.60;1.55;;;17.60;48.30;;;;;;6244059;23;20008;-76
2021/04/27 01:46:14;;;;;;;3.17;1.45;;;17.60;48.20;;;;;;6244089;23;20006;-76
2021/04/27 01:48:40;;;;;;;2.42;1.20;;;17.60;48.20;;;;;;6243981;23;20092;-76
2021/04/27 01:51:09;;;;;;;2.15;1.00;;;17.60;48.20;;;;;;6243899;23;20004;-76
2021/04/27 01:53:37;;;;;;;2.20;1.02;;;17.50;48.10;;;;;;6244137;23;20016;-76
2021/04/27 01:56:03;;;;;;;3.70;1.67;;;17.50;48.20;;;;;;6243689;23;20365;-76
2021/04/27 01:58:28;;;;;;;1.90;1.00;;;17.60;48.20;;;;;;6243672;23;20011;-73
2021/04/27 02:00:54;;;;;;;3.88;1.77;;;17.50;48.10;;;;;;6243747;23;20156;-76
2021/04/27 02:03:20;;;;;;;2.45;1.30;;;17.50;48.20;;;;;;6243478;22;20401;-74
2021/04/27 02:05:45;;;;;;;3.13;1.20;;;17.50;48.20;;;;;;6244144;23;20008;-76
2021/04/27 02:08:11;;;;;;;2.70;1.30;;;17.50;48.30;;;;;;6243803;23;19996;-76
2021/04/27 02:10:37;;;;;;;2.88;1.40;;;17.50;48.30;;;;;;6243656;23;20000;-76
2021/04/27 02:13:10;;;;;;;2.95;1.27;;;17.50;48.30;;;;;;6245529;23;20004;-75
2021/04/27 02:15:36;;;;;;;2.45;1.40;;;17.50;48.10;;;;;;6243891;23;20004;-75
2021/04/27 02:18:23;;;;;;;3.00;1.40;;;17.50;48.20;;;;;;6245843;23;20349;-76
2021/04/27 02:20:51;;;;;;;3.63;1.60;;;17.50;48.00;;;;;;6246033;23;20003;-76
2021/04/27 02:23:19;;;;;;;2.92;1.35;;;17.40;48.00;;;;;;6245908;23;20020;-76
2021/04/27 02:25:46;;;;;;;2.53;1.38;;;17.40;48.00;;;;;;6245661;23;20036;-76
2021/04/27 02:28:13;;;;;;;2.60;1.13;;;17.40;48.00;;;;;;6245794;23;20054;-76
2021/04/27 02:30:39;;;;;;;4.50;1.50;;;17.40;47.90;;;;;;6245665;22;20039;-76
2021/04/27 02:33:07;;;;;;;4.20;1.77;;;17.40;48.10;;;;;;6245702;23;20000;-76
2021/04/27 02:35:33;;;;;;;2.75;1.40;;;17.40;47.90;;;;;;6245572;23;20451;-76
2021/04/27 02:37:58;;;;;;;2.80;1.10;;;17.30;47.90;;;;;;6245363;23;20001;-75
2021/04/27 02:40:28;;;;;;;3.47;1.70;;;17.30;48.00;;;;;;6245582;23;20004;-75
2021/04/27 02:42:57;;;;;;;3.20;1.50;;;17.30;47.90;;;;;;6245474;23;20011;-75
2021/04/27 02:45:31;;;;;;;4.05;1.48;;;17.30;47.90;;;;;;6245457;23;20004;-75
2021/04/27 02:48:24;;;;;;;2.75;1.20;;;17.30;47.90;;;;;;6243671;23;20043;-75
2021/04/27 02:50:53;;;;;;;5.25;1.70;;;17.30;48.00;;;;;;6243401;23;20012;-76
2021/04/27 02:53:19;;;;;;;2.65;1.50;;;17.30;48.00;;;;;;6245867;23;20000;-76
2021/04/27 02:55:45;;;;;;;3.58;1.33;;;17.30;47.90;;;;;;6245187;23;19996;-76
2021/04/27 02:58:12;;;;;;;2.72;1.10;;;17.30;47.90;;;;;;6244935;23;20004;-77
2021/04/27 03:00:38;;;;;;;3.80;1.15;;;17.30;47.90;;;;;;6245035;23;20058;-75
2021/04/27 03:03:04;;;;;;;3.63;1.30;;;17.30;48.00;;;;;;6245442;23;20004;-76
2021/04/27 03:05:30;;;;;;;4.72;1.42;;;17.30;47.80;;;;;;6245121;23;20027;-75
2021/04/27 03:07:56;;;;;;;3.60;1.25;;;17.20;47.80;;;;;;6245066;23;19996;-75
2021/04/27 03:10:21;;;;;;;2.17;1.10;;;17.20;47.80;;;;;;6244384;23;20011;-76
2021/04/27 03:12:47;;;;;;;3.35;1.27;;;17.20;47.80;;;;;;6245146;23;19997;-76
2021/04/27 03:15:14;;;;;;;4.00;1.17;;;17.20;47.80;;;;;;6245093;23;20451;-76
2021/04/27 03:17:40;;;;;;;2.50;1.20;;;17.20;47.80;;;;;;6245171;23;20000;-76
2021/04/27 03:20:08;;;;;;;3.42;1.15;;;17.20;47.80;;;;;;6244998;23;20012;-75
2021/04/27 03:22:34;;;;;;;4.97;1.90;;;17.20;47.80;;;;;;6244704;23;20436;-77
2021/04/27 03:24:59;;;;;;;2.15;1.17;;;17.20;47.90;;;;;;6244977;23;20008;-76
2021/04/27 03:27:25;;;;;;;3.22;1.33;;;17.20;47.90;;;;;;6244719;23;20019;-74
2021/04/27 03:29:51;;;;;;;3.08;1.23;;;17.10;47.90;;;;;;6245156;23;20004;-75
2021/04/27 03:32:17;;;;;;;2.92;1.55;;;17.10;47.80;;;;;;6245206;23;20053;-76
2021/04/27 03:34:42;;;;;;;2.55;1.40;;;17.10;47.80;;;;;;6245141;23;20007;-76
2021/04/27 03:37:08;;;;;;;2.40;1.05;;;17.10;47.90;;;;;;6243376;23;20031;-75
2021/04/27 03:39:34;;;;;;;3.97;1.33;;;17.10;47.80;;;;;;6244778;23;20003;-76
2021/04/27 03:42:00;;;;;;;2.45;1.42;;;17.10;47.90;;;;;;6245189;23;20071;-75
2021/04/27 03:44:25;;;;;;;3.65;0.95;;;17.10;47.80;;;;;;6244799;23;20016;-73
2021/04/27 03:46:51;;;;;;;2.85;1.13;;;17.10;47.80;;;;;;6245390;23;20004;-77
2021/04/27 03:49:17;;;;;;;3.58;1.23;;;17.10;47.90;;;;;;6244972;23;20004;-76
2021/04/27 03:51:42;;;;;;;1.98;0.90;;;17.10;47.90;;;;;;6244745;23;20067;-76
2021/04/27 03:54:08;;;;;;;2.85;1.05;;;17.10;47.90;;;;;;6244917;23;20007;-77
2021/04/27 03:56:34;;;;;;;3.15;1.23;;;17.10;47.90;;;;;;6244689;23;19996;-77
2021/04/27 03:58:59;;;;;;;2.20;1.13;;;17.10;47.90;;;;;;6244496;23;20050;-77
2021/04/27 04:01:25;;;;;;;2.45;1.30;;;17.10;47.90;;;;;;6244905;23;20049;-78
2021/04/27 04:03:51;;;;;;;2.08;1.23;;;17.00;47.90;;;;;;6244640;23;20032;-76
2021/04/27 04:06:17;;;;;;;2.42;1.20;;;17.00;47.90;;;;;;6243210;23;20520;-78
2021/04/27 04:08:42;;;;;;;3.13;1.23;;;17.10;47.90;;;;;;6244714;23;20432;-77
2021/04/27 04:11:08;;;;;;;3.45;1.48;;;17.00;47.80;;;;;;6244999;23;20310;-77
2021/04/27 04:13:34;;;;;;;3.90;1.27;;;17.00;47.90;;;;;;6243488;23;20004;-77
2021/04/27 04:15:59;;;;;;;3.45;1.30;;;17.00;47.90;;;;;;6244673;23;20000;-76
2021/04/27 04:18:25;;;;;;;1.33;1.00;;;17.00;47.80;;;;;;6245162;23;20079;-76
2021/04/27 04:20:52;;;;;;;2.40;1.10;;;17.00;47.80;;;;;;6242769;23;20000;-77
2021/04/27 04:23:19;;;;;;;3.97;1.20;;;17.00;48.40;;;;;;6242782;23;20308;-77
2021/04/27 04:25:44;;;;;;;2.15;1.17;;;17.00;47.90;;;;;;6244351;23;20015;-76
2021/04/27 04:28:10;;;;;;;1.73;1.15;;;17.00;47.90;;;;;;6242607;23;20008;-77
2021/04/27 04:30:36;;;;;;;3.38;1.35;;;17.00;47.90;;;;;;6244632;23;20072;-76
2021/04/27 04:33:03;;;;;;;2.78;1.30;;;17.00;47.90;;;;;;6242535;23;20000;-77
2021/04/27 04:35:30;;;;;;;2.65;1.73;;;17.00;47.90;;;;;;6244059;23;20011;-75
2021/04/27 04:37:59;;;;;;;2.30;0.98;;;17.00;47.90;;;;;;6242843;23;20011;-76
2021/04/27 04:40:25;;;;;;;3.13;1.00;;;16.90;47.90;;;;;;6244650;23;20000;-76
2021/04/27 04:42:51;;;;;;;3.38;1.00;;;16.90;47.90;;;;;;6243916;23;20347;-76
2021/04/27 04:45:17;;;;;;;2.65;1.35;;;16.90;47.90;;;;;;6244584;23;20008;-77
2021/04/27 04:47:44;;;;;;;2.58;1.10;;;16.90;47.90;;;;;;6244248;23;20512;-77
2021/04/27 04:50:12;;;;;;;4.35;1.48;;;16.90;47.90;;;;;;6244429;23;20000;-76
2021/04/27 04:52:38;;;;;;;3.38;1.55;;;16.90;48.00;;;;;;6243752;23;20026;-76
2021/04/27 04:55:05;;;;;;;2.25;0.98;;;16.90;47.90;;;;;;6244134;23;20000;-74
2021/04/27 04:57:31;;;;;;;3.30;1.55;;;16.90;47.90;;;;;;6243928;23;20046;-76
2021/04/27 04:59:57;;;;;;;3.22;1.10;;;16.90;48.00;;;;;;6244430;23;20000;-75
2021/04/27 05:02:23;;;;;;;2.75;1.05;;;16.90;48.00;;;;;;6243911;23;20076;-74
2021/04/27 05:04:48;;;;;;;2.78;1.27;;;16.90;47.90;;;;;;6243844;23;20095;-75
2021/04/27 05:07:14;;;;;;;3.65;1.48;;;16.90;48.00;;;;;;6244227;23;20024;-74
2021/04/27 05:09:41;;;;;;;3.50;1.33;;;16.80;47.90;;;;;;6244299;23;20004;-74
2021/04/27 05:12:10;;;;;;;3.97;1.10;;;16.80;47.90;;;;;;6243626;23;20322;-74
2021/04/27 05:14:42;;;;;;;2.78;1.30;;;16.80;48.00;;;;;;6242711;23;20429;-75
2021/04/27 05:17:10;;;;;;;3.72;1.40;;;16.80;47.90;;;;;;6242357;23;20004;-76
2021/04/27 05:19:36;;;;;;;3.63;1.20;;;16.80;47.90;;;;;;6243952;23;20000;-75
2021/04/27 05:22:03;;;;;;;2.28;1.00;;;16.80;47.90;;;;;;6243757;23;20058;-74
2021/04/27 05:24:30;;;;;;;3.17;1.30;;;16.80;48.00;;;;;;6242392;23;20415;-76
2021/04/27 05:26:56;;;;;;;2.70;1.20;;;16.80;48.00;;;;;;6243833;23;20016;-76
2021/04/27 05:29:22;;;;;;;3.00;1.20;;;16.80;48.00;;;;;;6243881;23;20003;-77
2021/04/27 05:31:48;;;;;;;4.40;1.40;;;16.80;48.00;;;;;;6244035;23;20007;-77
2021/04/27 05:34:18;;;;;;;2.58;1.10;;;16.80;48.00;;;;;;6242044;23;20449;-76
2021/04/27 05:36:44;;;;;;;1.67;1.10;;;16.70;48.00;;;;;;6243937;23;20000;-76
2021/04/27 05:39:09;;;;;;;3.00;1.30;;;16.80;48.00;;;;;;6243791;23;20090;-76
2021/04/27 05:41:35;;;;;;;1.85;1.08;;;16.80;48.10;;;;;;6243981;23;20026;-76
2021/04/27 05:44:01;;;;;;;2.97;1.23;;;16.70;48.00;;;;;;6244394;23;20486;-76
2021/04/27 05:46:26;;;;;;;2.83;1.17;;;16.70;48.00;;;;;;6245549;23;20043;-76
2021/04/27 05:48:52;;;;;;;3.63;1.50;;;16.70;48.00;;;;;;6247181;23;20030;-77
2021/04/27 05:51:18;;;;;;;3.05;1.20;;;16.70;48.00;;;;;;6247031;23;20003;-77
2021/04/27 05:53:43;;;;;;;2.63;1.40;;;16.70;48.00;;;;;;6246946;23;20004;-77
2021/04/27 05:56:09;;;;;;;3.78;1.20;;;16.70;48.00;;;;;;6247469;23;20020;-77
2021/04/27 05:58:35;;;;;;;2.97;1.20;;;16.70;48.10;;;;;;6245607;23;20329;-76
2021/04/27 06:01:01;;;;;;;2.97;1.20;;;16.70;48.00;;;;;;6247427;23;20000;-76
2021/04/27 06:03:26;;;;;;;2.38;1.20;;;16.70;48.00;;;;;;6247013;23;20440;-76
2021/04/27 06:05:52;;;;;;;3.08;1.33;;;16.70;48.10;;;;;;6245500;23;20000;-75
2021/04/27 06:08:18;;;;;;;3.53;1.30;;;16.70;48.10;;;;;;6246871;23;20337;-75
2021/04/27 06:10:44;;;;;;;2.30;1.33;;;16.70;48.20;;;;;;6247162;23;20071;-76
2021/04/27 06:13:10;;;;;;;5.93;1.10;;;16.70;48.20;;;;;;6247179;23;20004;-76
2021/04/27 06:15:35;;;;;;;1.60;1.00;;;16.70;48.20;;;;;;6246725;23;20018;-75
2021/04/27 06:18:01;;;;;;;2.53;1.30;;;16.70;48.20;;;;;;6247447;23;20337;-75
2021/04/27 06:20:27;;;;;;;3.35;1.30;;;16.80;48.10;;;;;;6244808;23;20009;-75
2021/04/27 06:22:52;;;;;;;3.08;1.05;;;16.80;48.10;;;;;;6246528;23;20008;-73
2021/04/27 06:25:18;;;;;;;2.78;1.38;;;16.90;48.30;;;;;;6247014;23;20008;-72
2021/04/27 06:27:44;;;;;;;5.38;1.23;;;17.00;48.20;;;;;;6247098;23;19996;-73
2021/04/27 06:30:11;;;;;;;2.90;1.10;;;17.10;48.30;;;;;;6247331;23;20040;-73
2021/04/27 06:32:37;;;;;;;2.75;1.05;;;17.10;48.50;;;;;;6247153;23;20074;-72
2021/04/27 06:35:04;;;;;;;4.75;1.30;;;17.30;48.60;;;;;;6247075;23;20437;-74
2021/04/27 06:37:30;;;;;;;2.90;1.40;;;17.40;48.60;;;;;;6246942;23;20004;-76
2021/04/27 06:39:56;;;;;;;3.17;1.08;;;17.40;48.80;;;;;;6247120;23;20444;-71
2021/04/27 06:42:22;;;;;;;2.65;1.48;;;17.50;48.80;;;;;;6246760;23;20053;-72
2021/04/27 06:44:48;;;;;;;4.72;1.48;;;17.50;48.70;;;;;;6246519;23;20091;-70
2021/04/27 06:47:14;;;;;;;5.75;1.33;;;17.60;48.80;;;;;;6246639;23;20000;-70
2021/04/27 06:49:40;;;;;;;4.80;1.77;;;17.70;49.00;;;;;;6246890;23;20340;-72
2021/04/27 06:52:07;;;;;;;3.58;1.35;;;17.70;48.50;;;;;;6245229;23;20455;-73
2021/04/27 06:54:33;;;;;;;5.80;1.67;;;17.70;48.40;;;;;;6247347;22;20028;-77
2021/04/27 06:57:01;;;;;;;9.32;1.95;;;17.70;48.80;;;;;;6244883;23;20432;-77
2021/04/27 06:59:31;;;;;;;7.88;1.65;;;17.70;48.80;;;;;;6245159;23;20340;-75
2021/04/27 07:02:02;;;;;;;3.80;1.77;;;17.80;49.00;;;;;;6244483;23;20385;-79
2021/04/27 07:04:33;;;;;;;4.45;1.67;;;17.80;48.80;;;;;;6240832;23;20079;-75
2021/04/27 07:06:59;;;;;;;7.95;1.80;;;17.70;48.70;;;;;;6244026;23;20385;-75
2021/04/27 07:09:25;;;;;;;8.00;1.58;;;17.80;48.80;;;;;;6242093;23;20004;-76
2021/04/27 07:11:51;;;;;;;3.53;1.42;;;17.80;48.80;;;;;;6243293;23;20071;-73
2021/04/27 07:14:16;;;;;;;3.60;1.40;;;17.80;48.80;;;;;;6244257;23;20007;-78
2021/04/27 07:16:42;;;;;;;3.20;1.70;;;17.80;48.80;;;;;;6244483;23;20031;-74
2021/04/27 07:19:08;;;;;;;3.25;1.75;;;17.80;48.70;;;;;;6244759;23;20007;-72
2021/04/27 07:21:34;;;;;;;6.50;2.25;;;17.80;48.60;;;;;;6246589;23;20003;-77
2021/04/27 07:24:01;;;;;;;3.60;1.52;;;17.80;48.70;;;;;;6243851;23;20100;-78
2021/04/27 07:26:26;;;;;;;5.57;1.40;;;17.80;48.50;;;;;;6245186;23;20035;-81
2021/04/27 07:28:53;;;;;;;3.15;1.20;;;17.80;48.70;;;;;;6245262;23;20000;-77
2021/04/27 07:31:19;;;;;;;8.93;1.55;;;17.80;48.70;;;;;;6244879;23;20432;-80
2021/04/27 07:33:46;;;;;;;4.35;1.80;;;17.80;48.70;;;;;;6244884;23;20008;-79
2021/04/27 07:36:12;;;;;;;2.78;1.30;;;17.80;48.70;;;;;;6245272;23;20054;-78
2021/04/27 07:38:38;;;;;;;3.45;1.40;;;17.80;48.60;;;;;;6245331;23;20005;-77
2021/04/27 07:41:03;;;;;;;4.05;1.33;;;17.80;48.60;;;;;;6245131;23;20001;-80
2021/04/27 07:43:29;;;;;;;5.00;1.73;;;17.80;48.60;;;;;;6244811;23;20016;-80
2021/04/27 07:45:54;;;;;;;5.07;1.63;;;17.80;48.60;;;;;;6244970;23;19996;-77
2021/04/27 07:48:20;;;;;;;5.38;1.42;;;17.80;48.60;;;;;;6244199;23;20000;-77
2021/04/27 07:50:46;;;;;;;3.30;1.20;;;17.80;48.60;;;;;;6244942;23;20491;-77
2021/04/27 07:53:12;;;;;;;3.78;1.70;;;17.80;48.60;;;;;;6244957;23;20451;-77
2021/04/27 07:55:37;;;;;;;4.20;1.48;;;17.80;48.50;;;;;;6245228;23;20142;-77
2021/04/27 07:58:04;;;;;;;3.08;1.30;;;17.80;48.50;;;;;;6244772;23;20001;-77
2021/04/27 08:00:30;;;;;;;4.13;1.70;;;17.80;48.50;;;;;;6244536;23;20075;-76
2021/04/27 08:02:56;;;;;;;4.05;1.27;;;17.80;48.50;;;;;;6244457;23;20344;-76
2021/04/27 08:05:22;;;;;;;3.03;1.33;;;17.70;48.50;;;;;;6245017;23;20028;-77
2021/04/27 08:07:49;;;;;;;2.70;1.52;;;17.80;48.50;;;;;;6244825;23;20371;-76
2021/04/27 08:10:15;;;;;;;3.30;1.38;;;17.70;48.40;;;;;;6244436;23;20008;-75
2021/04/27 08:12:46;;;;;;;4.43;1.30;;;17.70;48.40;;;;;;6244674;23;20000;-76
2021/04/27 08:15:14;;;;;;;1.85;1.00;;;17.70;48.40;;;;;;6244632;23;20011;-75
2021/04/27 08:17:41;;;;;;;3.10;1.38;;;17.70;48.40;;;;;;6244879;23;19996;-74
2021/04/27 08:20:08;;;;;;;1.80;1.10;;;17.70;48.40;;;;;;6245323;23;20008;-75
2021/04/27 08:22:35;;;;;;;2.63;1.05;;;17.70;48.40;;;;;;6244572;23;20441;-76
2021/04/27 08:25:00;;;;;;;3.90;1.13;;;17.70;48.50;;;;;;6244723;23;20092;-76
2021/04/27 08:27:27;;;;;;;3.10;1.30;;;17.70;48.50;;;;;;6243941;23;20366;-76
2021/04/27 08:29:52;;;;;;;4.00;1.05;;;17.70;48.50;;;;;;6244637;23;20031;-75
2021/04/27 08:32:19;;;;;;;3.03;0.98;;;17.70;48.50;;;;;;6244918;23;20432;-76
2021/04/27 08:34:45;;;;;;;4.03;1.15;;;17.70;48.40;;;;;;6244209;23;19996;-77
2021/04/27 08:37:11;;;;;;;2.95;1.13;;;17.70;48.40;;;;;;6244744;23;20075;-77
2021/04/27 08:39:36;;;;;;;3.50;1.27;;;17.70;48.40;;;;;;6244761;23;20090;-76
2021/04/27 08:42:03;;;;;;;2.95;1.33;;;17.70;48.30;;;;;;6244414;23;20485;-76
2021/04/27 08:44:28;;;;;;;2.45;1.13;;;17.70;48.30;;;;;;6244456;23;20016;-77
2021/04/27 08:46:54;;;;;;;4.25;1.30;;;17.70;48.30;;;;;;6244353;23;20000;-77
2021/04/27 08:49:20;;;;;;;3.63;1.27;;;17.70;48.30;;;;;;6244622;23;20078;-77
2021/04/27 08:51:45;;;;;;;3.10;1.20;;;17.70;48.30;;;;;;6244344;23;20506;-77
2021/04/27 08:54:11;;;;;;;3.40;1.50;;;17.70;48.40;;;;;;6244504;23;20348;-76
2021/04/27 08:56:37;;;;;;;2.22;1.00;;;17.70;48.50;;;;;;6244268;23;19996;-76
2021/04/27 08:59:03;;;;;;;3.00;1.17;;;17.70;48.60;;;;;;6244001;23;20012;-77
2021/04/27 09:01:29;;;;;;;3.85;1.23;;;17.60;48.50;;;;;;6244349;23;19996;-76
2021/04/27 09:03:55;;;;;;;2.78;1.38;;;17.70;48.60;;;;;;6244215;23;20008;-77
2021/04/27 09:06:22;;;;;;;3.08;1.20;;;17.70;49.20;;;;;;6244035;23;20004;-77
2021/04/27 09:08:49;;;;;;;3.70;1.63;;;17.60;48.60;;;;;;6241978;23;20050;-77
2021/04/27 09:11:26;;;;;;;1.98;1.15;;;17.60;48.60;;;;;;6244102;22;20022;-76
2021/04/27 09:14:10;;;;;;;2.33;1.17;;;17.60;48.60;;;;;;6243960;23;20322;-76
2021/04/27 09:16:37;;;;;;;2.63;1.10;;;17.60;48.60;;;;;;6243832;23;20034;-74
2021/04/27 09:19:04;;;;;;;5.75;1.30;;;17.60;48.60;;;;;;6243902;23;20004;-77
2021/04/27 09:21:39;;;;;;;2.88;1.15;;;17.70;48.60;;;;;;6243737;23;20000;-77
2021/04/27 09:24:17;;;;;;;2.07;0.90;;;17.70;48.60;;;;;;6243754;23;20008;-77
2021/04/27 09:26:51;;;;;;;2.20;1.30;;;17.70;48.40;;;;;;6244449;23;20040;-77
2021/04/27 09:29:28;;;;;;;3.97;1.40;;;17.70;48.40;;;;;;6244211;23;20011;-76
2021/04/27 09:31:54;;;;;;;2.60;1.35;;;17.70;48.40;;;;;;6244163;23;20000;-76
2021/04/27 09:34:21;;;;;;;2.50;1.10;;;17.70;48.40;;;;;;6243649;23;20078;-75
2021/04/27 09:36:49;;;;;;;2.92;1.33;;;17.70;48.40;;;;;;6243014;23;20054;-77
2021/04/27 09:39:18;;;;;;;1.92;1.10;;;17.70;48.30;;;;;;6243943;23;20306;-76
2021/04/27 09:41:59;;;;;;;3.90;1.05;;;17.70;48.30;;;;;;6244322;23;20039;-76
2021/04/27 09:44:29;;;;;;;2.55;1.30;;;17.80;48.40;;;;;;6243938;23;20008;-75
2021/04/27 09:47:44;;;;;;;2.47;1.45;;;17.80;48.40;;;;;;6243578;23;20003;-76
2021/04/27 09:50:11;;;;;;;1.77;1.02;;;17.80;48.40;;;;;;6229906;23;20008;-75
2021/04/27 09:52:44;;;;;;;2.50;1.08;;;17.80;48.40;;;;;;6243133;23;20036;-75
2021/04/27 09:55:11;;;;;;;3.17;1.30;;;17.80;48.30;;;;;;6243481;23;20000;-75
2021/04/27 09:57:47;;;;;;;1.75;0.85;;;17.80;48.30;;;;;;6242992;23;20080;-73
2021/04/27 10:00:28;;;;;;;;;;;17.80;48.30;;;;;;6244384;23;20024;-75
2021/04/27 10:03:02;;;;;;;1.80;0.95;;;17.80;48.30;;;;;;6243065;23;19900;-74
2021/04/27 10:05:29;;;;;;;3.33;1.30;;;17.80;48.30;;;;;;6243361;23;20348;-76
2021/04/27 10:07:58;;;;;;;2.10;1.20;;;17.90;48.30;;;;;;6243842;23;20010;-75
2021/04/27 10:10:24;;;;;;;1.80;1.08;;;17.90;48.30;;;;;;6243844;23;20004;-76
2021/04/27 10:12:50;;;;;;;3.55;1.17;;;17.90;48.40;;;;;;6243944;23;19996;-76
2021/04/27 10:15:16;;;;;;;1.98;1.10;;;17.90;48.30;;;;;;6244202;23;20008;-76
2021/04/27 10:17:42;;;;;;;2.58;1.38;;;17.90;48.40;;;;;;6244132;23;20074;-75
2021/04/27 10:20:12;;;;;;;1.83;1.00;;;17.80;48.30;;;;;;6243706;23;20004;-74
2021/04/27 10:22:41;;;;;;;1.85;1.30;;;17.90;48.40;;;;;;6243460;23;20101;-78
2021/04/27 10:25:11;;;;;;;4.68;1.70;;;17.90;48.40;;;;;;6244084;23;20452;-78
2021/04/27 10:27:37;;;;;;;3.03;1.30;;;17.90;48.40;;;;;;6243388;23;20065;-76
2021/04/27 10:30:17;;;;;;;3.45;1.20;;;17.90;48.20;;;;;;6243081;23;20384;-73
2021/04/27 10:33:06;;;;;;;2.72;1.23;;;18.00;48.40;;;;;;6243902;23;20007;-74
2021/04/27 10:35:37;;;;;;;2.22;1.38;;;17.90;48.30;;;;;;6243419;23;20373;-77
2021/04/27 10:38:16;;;;;;;3.63;1.33;;;18.00;48.30;;;;;;6245558;23;20433;-75
2021/04/27 10:40:46;;;;;;;2.67;1.23;;;18.10;48.20;;;;;;6243718;23;20011;-75
2021/04/27 10:43:26;;;;;;;2.90;1.58;;;18.20;48.20;;;;;;6245180;23;20447;-75
2021/04/27 10:45:57;;;;;;;2.83;1.52;;;18.30;48.20;;;;;;6245503;23;20011;-75
2021/04/27 10:48:29;;;;;;;3.10;1.20;;;18.30;48.20;;;;;;6245131;23;20007;-77
2021/04/27 10:50:56;;;;;;;2.28;1.13;;;18.40;48.20;;;;;;6245569;23;20075;-74
2021/04/27 10:53:33;;;;;;;1.35;0.80;;;18.50;48.10;;;;;;6245397;23;20384;-77
2021/04/27 10:55:59;;;;;;;2.90;1.25;;;18.60;48.00;;;;;;6245536;23;20004;-76
2021/04/27 10:58:46;;;;;;;4.03;1.13;;;18.70;48.00;;;;;;6243915;23;20027;-77
2021/04/27 11:01:25;;;;;;;3.70;1.30;;;18.80;47.90;;;;;;6245393;23;20071;-77
2021/04/27 11:03:53;;;;;;;4.05;1.10;;;18.90;47.90;;;;;;6245239;23;20015;-77
2021/04/27 11:06:20;;;;;;;2.03;1.05;;;19.10;47.90;;;;;;6244183;23;19996;-77
2021/04/27 11:08:58;;;;;;;2.72;1.00;;;19.20;47.80;;;;;;6245985;23;20012;-77
2021/04/27 11:11:25;;;;;;;5.85;0.88;;;19.30;47.60;;;;;;6245305;23;20000;-77
2021/04/27 11:14:13;;;;;;;1.55;0.85;;;19.40;47.60;;;;;;6245070;23;20011;-77
2021/04/27 11:16:43;;;;;;;2.05;0.90;;;19.60;47.50;;;;;;6245035;23;20001;-77
2021/04/27 11:19:13;;;;;;;2.55;1.00;;;19.70;47.30;;;;;;6245455;23;20000;-76
2021/04/27 11:21:39;;;;;;;1.63;0.90;;;19.80;47.20;;;;;;6245243;23;20000;-77
2021/04/27 11:24:08;;;;;;;2.03;0.93;;;19.80;47.10;;;;;;6245011;23;20441;-75
2021/04/27 11:26:34;;;;;;;2.58;1.15;;;19.90;47.10;;;;;;6244398;23;20012;-75
2021/04/27 11:29:16;;;;;;;2.47;0.70;;;20.00;47.10;;;;;;6243741;23;20114;-75
2021/04/27 11:32:05;;;;;;;5.55;1.20;;;20.00;46.90;;;;;;6244037;23;20001;-77
2021/04/27 11:34:50;;;;;;;3.05;0.80;;;20.10;46.80;;;;;;6243881;23;20004;-75
2021/04/27 11:37:18;;;;;;;2.85;1.25;;;20.10;46.70;;;;;;6242417;23;20351;-75
2021/04/27 11:39:44;;;;;;;3.95;1.30;;;20.20;46.60;;;;;;6242274;23;20007;-76
2021/04/27 11:42:09;;;;;;;2.22;1.20;;;20.20;46.50;;;;;;6243643;23;20344;-78
2021/04/27 11:44:41;;;;;;;1.83;0.90;;;20.30;46.40;;;;;;6243567;23;20016;-79
2021/04/27 11:47:17;;;;;;;3.80;1.02;;;20.30;46.30;;;;;;6243921;22;20080;-77
2021/04/27 11:49:54;;;;;;;2.83;0.98;;;20.40;46.40;;;;;;6243281;23;20010;-78
2021/04/27 11:52:44;;;;;;;2.30;1.00;;;20.40;46.70;;;;;;6241569;23;20014;-77
2021/04/27 11:55:23;;;;;;;2.30;1.40;;;20.50;47.00;;;;;;6244369;22;20080;-77
2021/04/27 11:58:06;;;;;;;4.40;1.50;;;20.50;46.80;;;;;;6243104;23;20440;-76
2021/04/27 12:00:43;;;;;;;3.67;1.30;;;20.50;46.90;;;;;;6243886;23;20000;-77
2021/04/27 12:03:54;;;;;;;4.10;1.90;;;20.60;46.80;;;;;;6242804;23;20008;-75
2021/04/27 12:06:20;;;;;;;4.10;1.60;;;20.70;47.70;;;;;;6241792;23;20008;-75
2021/04/27 12:08:53;;;;;;;6.50;1.60;;;20.70;48.00;;;;;;6245212;23;20018;-76
2021/04/27 12:11:20;;;;;;;2.30;1.20;;;20.70;47.70;;;;;;6245266;23;20506;-74
2021/04/27 12:13:51;;;;;;;3.08;1.73;;;20.70;47.50;;;;;;6245399;22;20008;-76
2021/04/27 12:16:18;;;;;;;3.70;1.95;;;20.80;47.40;;;;;;6244904;23;20004;-75
2021/04/27 12:18:48;;;;;;;2.67;1.30;;;20.80;47.10;;;;;;6244522;23;20000;-76
2021/04/27 12:21:52;;;;;;;4.03;1.83;;;20.80;47.20;;;;;;6244510;23;20350;-75
2021/04/27 12:24:32;;;;;;;2.63;1.25;;;20.90;47.20;;;;;;6245001;23;20012;-75
2021/04/27 12:27:11;;;;;;;3.33;1.60;;;20.90;47.10;;;;;;6244671;23;20011;-75
2021/04/27 12:29:52;;;;;;;2.85;1.35;;;20.90;46.80;;;;;;6244394;23;20028;-76
2021/04/27 12:32:25;;;;;;;2.35;1.33;;;21.00;46.70;;;;;;6244953;23;20000;-76
2021/04/27 12:35:04;;;;;;;3.78;1.33;;;21.00;46.60;;;;;;6244934;23;20000;-75
2021/04/27 12:37:36;;;;;;;4.38;1.55;;;21.00;46.40;;;;;;6244415;23;20011;-76
2021/04/27 12:40:23;;;;;;;2.42;1.10;;;21.00;46.00;;;;;;6244120;23;20003;-76
2021/04/27 12:43:04;;;;;;;3.42;1.50;;;21.10;46.00;;;;;;6244149;23;20083;-74
2021/04/27 12:45:44;;;;;;;4.25;1.52;;;21.10;46.10;;;;;;6243654;23;20008;-77
2021/04/27 12:48:10;;;;;;;3.65;1.45;;;21.10;46.00;;;;;;6244003;23;20023;-78
2021/04/27 12:50:52;;;;;;;2.72;1.40;;;21.10;45.70;;;;;;6244532;23;20436;-76
2021/04/27 12:53:20;;;;;;;2.75;1.55;;;21.10;45.60;;;;;;6242086;23;20039;-77
2021/04/27 12:55:52;;;;;;;2.63;1.40;;;21.20;45.40;;;;;;6244059;23;20445;-76